createdAt,value
2023-04-27T00:01:30.404Z,97049.90
2023-04-27T00:04:01.703Z,97047.38
2023-04-27T00:06:33.429Z,97049.63
2023-04-27T00:09:05.590Z,97049.46
2023-04-27T00:11:36.694Z,97045.75
2023-04-27T00:14:09.668Z,97048.84
2023-04-27T00:16:39.981Z,97047.33
2023-04-27T00:19:12.226Z,97048.57
2023-04-27T00:21:45.062Z,97047.27
2023-04-27T00:24:19.340Z,97050.25
2023-04-27T00:26:52.320Z,97053.40
2023-04-27T00:29:28.228Z,97054.13
2023-04-27T00:32:01.258Z,97055.89
2023-04-27T00:34:32.412Z,97053.48
2023-04-27T00:37:03.394Z,97057.27
2023-04-27T00:39:37.937Z,97062.58
2023-04-27T00:42:12.950Z,97074.14
2023-04-27T00:44:47.289Z,97072.89
2023-04-27T00:47:24.593Z,97072.54
2023-04-27T00:49:58.494Z,97068.77
2023-04-27T00:52:33.499Z,97066.42
2023-04-27T00:55:08.728Z,97068.64
2023-04-27T00:57:49.141Z,97066.92
2023-04-27T01:00:23.005Z,97070.85
2023-04-27T01:02:57.565Z,97063.97
2023-04-27T01:05:32.500Z,97068.87
2023-04-27T01:08:05.462Z,97068.62
2023-04-27T01:10:38.111Z,97072.83
2023-04-27T01:13:08.335Z,97074.27
2023-04-27T01:15:44.167Z,97078.24
2023-04-27T01:18:16.912Z,97078.02
2023-04-27T01:20:47.998Z,97078.41
2023-04-27T01:23:21.497Z,97078.71
2023-04-27T01:25:54.103Z,97077.17
2023-04-27T01:28:26.023Z,97077.30
2023-04-27T01:30:57.428Z,97082.29
2023-04-27T01:33:31.368Z,97084.96
2023-04-27T01:36:05.821Z,97087.38
2023-04-27T01:38:38.516Z,97086.02
2023-04-27T01:41:10.559Z,97090.61
2023-04-27T01:43:44.542Z,97090.98
2023-04-27T01:46:15.128Z,97090.55
2023-04-27T01:48:46.441Z,97092.73
2023-04-27T01:51:17.811Z,97089.79
2023-04-27T01:53:49.128Z,97095.22
2023-04-27T01:56:22.243Z,97097.30
2023-04-27T01:58:56.834Z,97096.58
2023-04-27T02:01:28.901Z,97095.78
2023-04-27T02:04:01.205Z,97096.19
2023-04-27T02:06:33.500Z,97099.79
2023-04-27T02:09:03.435Z,97099.52
2023-04-27T02:11:32.799Z,97100.70
2023-04-27T02:14:02.475Z,97100.08
2023-04-27T02:16:37.987Z,97102.39
2023-04-27T02:19:09.604Z,97103.45
2023-04-27T02:21:42.660Z,97104.20
2023-04-27T02:24:14.786Z,97105.63
2023-04-27T02:26:49.945Z,97110.70
2023-04-27T02:29:20.889Z,97114.39
2023-04-27T02:31:52.195Z,97117.56
2023-04-27T02:34:23.612Z,97118.27
2023-04-27T02:36:54.633Z,97116.90
2023-04-27T02:39:24.482Z,97122.97
2023-04-27T02:41:54.754Z,97122.02
2023-04-27T02:44:25.194Z,97124.29
2023-04-27T02:46:55.086Z,97124.98
2023-04-27T02:49:24.643Z,97129.77
2023-04-27T02:51:54.736Z,97132.19
2023-04-27T02:54:24.897Z,97131.75
2023-04-27T02:56:54.431Z,97130.78
2023-04-27T02:59:25.442Z,97138.77
2023-04-27T03:01:55.978Z,97137.33
2023-04-27T03:04:27.051Z,97140.60
2023-04-27T03:06:57.471Z,97144.37
2023-04-27T03:09:26.829Z,97144.77
2023-04-27T03:11:57.294Z,97152.56
2023-04-27T03:14:27.273Z,97149.69
2023-04-27T03:16:57.910Z,97149.62
2023-04-27T03:19:27.817Z,97151.29
2023-04-27T03:21:57.529Z,97156.94
2023-04-27T03:24:28.201Z,97162.90
2023-04-27T03:26:58.824Z,97163.48
2023-04-27T03:29:28.460Z,97164.55
2023-04-27T03:31:58.872Z,97168.11
2023-04-27T03:34:28.194Z,97172.74
2023-04-27T03:36:58.732Z,97174.47
2023-04-27T03:39:28.688Z,97177.52
2023-04-27T03:41:59.950Z,97182.73
2023-04-27T03:44:28.898Z,97185.86
2023-04-27T03:46:58.610Z,97188.64
2023-04-27T03:49:28.443Z,97190.55
2023-04-27T03:51:59.048Z,97191.77
2023-04-27T03:54:28.760Z,97192.80
2023-04-27T03:56:58.087Z,97195.33
2023-04-27T03:59:29.813Z,97199.04
2023-04-27T04:02:01.306Z,97201.41
2023-04-27T04:04:31.576Z,97200.96
2023-04-27T04:07:00.779Z,97202.86
2023-04-27T04:09:30.604Z,97203.31
2023-04-27T04:11:59.281Z,97209.11
2023-04-27T04:14:28.998Z,97208.69
2023-04-27T04:17:00.620Z,97213.40
2023-04-27T04:19:30.454Z,97213.21
2023-04-27T04:21:59.669Z,97222.37
2023-04-27T04:24:28.653Z,97221.94
2023-04-27T04:26:58.983Z,97222.14
2023-04-27T04:29:29.077Z,97229.54
2023-04-27T04:31:57.902Z,97231.84
2023-04-27T04:34:27.918Z,97233.14
2023-04-27T04:37:00.730Z,97235.67
2023-04-27T04:39:32.949Z,97238.21
2023-04-27T04:42:01.945Z,97236.71
2023-04-27T04:44:32.578Z,97234.30
2023-04-27T04:47:02.305Z,97239.54
2023-04-27T04:49:31.336Z,97244.15
2023-04-27T04:52:00.269Z,97243.34
2023-04-27T04:54:29.173Z,97251.45
2023-04-27T04:56:59.692Z,97250.39
2023-04-27T04:59:30.359Z,97252.32
2023-04-27T05:02:01.655Z,97255.01
2023-04-27T05:04:30.923Z,97255.23
2023-04-27T05:07:00.581Z,97261.16
2023-04-27T05:09:29.875Z,97262.39
2023-04-27T05:11:59.241Z,97261.05
2023-04-27T05:14:28.277Z,97264.42
2023-04-27T05:16:57.566Z,97266.08
2023-04-27T05:19:29.027Z,97265.88
2023-04-27T05:21:59.313Z,97268.51
2023-04-27T05:24:28.374Z,97267.45
2023-04-27T05:26:57.229Z,97264.98
2023-04-27T05:29:26.328Z,97268.27
2023-04-27T05:31:56.170Z,97267.13
2023-04-27T05:34:25.222Z,97270.98
2023-04-27T05:36:54.731Z,97272.05
2023-04-27T05:39:23.744Z,97271.44
2023-04-27T05:41:54.356Z,97274.20
2023-04-27T05:44:25.826Z,97274.06
2023-04-27T05:46:55.331Z,97275.17
2023-04-27T05:49:24.823Z,97276.76
2023-04-27T05:51:54.317Z,97276.15
2023-04-27T05:54:22.995Z,97274.61
2023-04-27T05:56:52.508Z,97275.88
2023-04-27T05:59:22.337Z,97276.65
2023-04-27T06:01:51.333Z,97279.24
2023-04-27T06:04:20.126Z,97278.60
2023-04-27T06:06:49.945Z,97287.30
2023-04-27T06:09:19.436Z,97284.63
2023-04-27T06:11:48.427Z,97284.70
2023-04-27T06:14:18.252Z,97285.20
2023-04-27T06:16:47.325Z,97287.70
2023-04-27T06:19:16.942Z,97286.30
2023-04-27T06:21:46.048Z,97286.16
2023-04-27T06:24:16.350Z,97283.90
2023-04-27T06:26:45.542Z,97283.06
2023-04-27T06:29:14.833Z,97282.42
2023-04-27T06:31:46.930Z,97289.70
2023-04-27T06:34:18.870Z,97292.02
2023-04-27T06:36:47.757Z,97289.84
2023-04-27T06:39:17.290Z,97285.39
2023-04-27T06:41:46.572Z,97288.95
2023-04-27T06:44:20.573Z,97283.78
2023-04-27T06:46:49.889Z,97283.73
2023-04-27T06:49:19.729Z,97285.39
2023-04-27T06:51:49.986Z,97280.75
2023-04-27T06:54:19.528Z,97283.86
2023-04-27T06:56:48.603Z,97282.54
2023-04-27T06:59:17.723Z,97286.47
2023-04-27T07:01:47.257Z,97285.70
2023-04-27T07:04:16.411Z,97280.75
2023-04-27T07:06:45.297Z,97285.77
2023-04-27T07:09:26.655Z,97290.06
2023-04-27T07:11:56.182Z,97289.33
2023-04-27T07:14:25.087Z,97295.16
2023-04-27T07:16:53.862Z,97297.46
2023-04-27T07:19:23.065Z,97298.69
2023-04-27T07:21:52.348Z,97299.55
2023-04-27T07:24:21.409Z,97299.81
2023-04-27T07:26:50.452Z,97295.64
2023-04-27T07:29:26.401Z,97292.36
2023-04-27T07:31:56.600Z,97293.39
2023-04-27T07:34:25.534Z,97289.30
2023-04-27T07:36:54.753Z,97292.52
2023-04-27T07:39:26.387Z,97292.16
2023-04-27T07:41:55.365Z,97286.00
2023-04-27T07:44:24.371Z,97292.30
2023-04-27T07:46:55.052Z,97288.55
2023-04-27T07:49:25.285Z,97289.10
2023-04-27T07:51:54.222Z,97284.85
2023-04-27T07:54:23.086Z,97283.20
2023-04-27T07:56:52.179Z,97286.33
2023-04-27T07:59:21.287Z,97279.80
2023-04-27T08:01:50.299Z,97285.73
2023-04-27T08:04:20.077Z,97283.89
2023-04-27T08:06:49.647Z,97284.40
2023-04-27T08:09:18.684Z,97284.87
2023-04-27T08:11:48.803Z,97282.42
2023-04-27T08:14:17.621Z,97281.70
2023-04-27T08:16:46.620Z,97288.54
2023-04-27T08:19:16.515Z,97288.55
2023-04-27T08:21:45.391Z,97286.41
2023-04-27T08:24:14.392Z,97286.84
2023-04-27T08:26:43.677Z,97279.49
2023-04-27T08:29:26.338Z,97286.96
2023-04-27T08:31:59.982Z,97285.52
2023-04-27T08:34:29.564Z,97290.31
2023-04-27T08:36:58.822Z,97296.02
2023-04-27T08:39:28.407Z,97294.33
2023-04-27T08:41:57.307Z,97296.64
2023-04-27T08:44:26.612Z,97289.43
2023-04-27T08:46:55.798Z,97288.41
2023-04-27T08:49:25.845Z,97282.85
2023-04-27T08:51:54.599Z,97283.25
2023-04-27T08:54:23.395Z,97292.15
2023-04-27T08:56:52.585Z,97291.85
2023-04-27T08:59:21.583Z,97284.70
2023-04-27T09:01:51.615Z,97286.90
2023-04-27T09:04:20.544Z,97289.02
2023-04-27T09:06:51.216Z,97281.05
2023-04-27T09:09:24.466Z,97282.02
2023-04-27T09:11:53.215Z,97284.20
2023-04-27T09:14:24.446Z,97288.64
2023-04-27T09:17:00.560Z,97290.92
2023-04-27T09:19:30.962Z,97286.64
2023-04-27T09:22:11.582Z,97283.98
2023-04-27T09:24:51.432Z,97285.73
2023-04-27T09:27:22.472Z,97281.39
2023-04-27T09:29:52.255Z,97284.69
2023-04-27T09:32:21.336Z,97277.54
2023-04-27T09:34:49.976Z,97277.02
2023-04-27T09:37:19.882Z,97275.80
2023-04-27T09:39:50.523Z,97279.23
2023-04-27T09:42:19.456Z,97281.56
2023-04-27T09:44:48.822Z,97280.85
2023-04-27T09:47:17.597Z,97272.81
2023-04-27T09:49:48.023Z,97273.40
2023-04-27T09:52:16.717Z,97281.63
2023-04-27T09:54:46.897Z,97275.77
2023-04-27T09:57:30.984Z,97275.36
2023-04-27T10:00:16.872Z,97270.27
2023-04-27T10:02:56.660Z,97280.52
2023-04-27T10:05:43.018Z,97278.68
2023-04-27T10:08:12.610Z,97278.20
2023-04-27T10:10:50.825Z,97275.86
2023-04-27T10:13:27.349Z,97280.01
2023-04-27T10:15:56.992Z,97277.33
2023-04-27T10:18:28.615Z,97276.70
2023-04-27T10:21:09.734Z,97277.85
2023-04-27T10:23:51.407Z,97280.45
2023-04-27T10:26:28.006Z,97277.48
2023-04-27T10:29:07.631Z,97282.16
2023-04-27T10:31:36.554Z,97287.04
2023-04-27T10:34:10.617Z,97293.21
2023-04-27T10:36:41.441Z,97298.96
2023-04-27T10:39:30.033Z,97297.60
2023-04-27T10:42:06.535Z,97295.68
2023-04-27T10:44:37.278Z,97294.46
2023-04-27T10:47:20.317Z,97295.41
2023-04-27T10:49:52.967Z,97295.81
2023-04-27T10:52:22.543Z,97288.70
2023-04-27T10:54:51.486Z,97295.14
2023-04-27T10:57:20.212Z,97295.45
2023-04-27T10:59:55.880Z,97296.61
2023-04-27T11:02:29.572Z,97292.57
2023-04-27T11:04:59.018Z,97300.26
2023-04-27T11:07:29.711Z,97296.21
2023-04-27T11:09:58.449Z,97293.20
2023-04-27T11:12:27.460Z,97301.19
2023-04-27T11:14:59.840Z,97303.88
2023-04-27T11:17:32.883Z,97302.05
2023-04-27T11:20:01.429Z,97297.63
2023-04-27T11:22:30.244Z,97303.79
2023-04-27T11:24:59.413Z,97306.02
2023-04-27T11:27:38.959Z,97310.70
2023-04-27T11:30:20.452Z,97313.67
2023-04-27T11:32:50.416Z,97312.33
2023-04-27T11:35:19.460Z,97313.88
2023-04-27T11:37:58.795Z,97317.41
2023-04-27T11:40:29.141Z,97322.92
2023-04-27T11:43:04.652Z,97323.87
2023-04-27T11:45:33.237Z,97321.96
2023-04-27T11:48:02.251Z,97322.86
2023-04-27T11:50:31.481Z,97320.44
2023-04-27T11:53:02.092Z,97313.05
2023-04-27T11:55:31.663Z,97319.38
2023-04-27T11:58:00.764Z,97319.67
2023-04-27T12:00:29.782Z,97324.20
2023-04-27T12:02:58.919Z,97317.20
2023-04-27T12:05:28.561Z,97323.54
2023-04-27T12:07:57.757Z,97322.52
2023-04-27T12:10:26.857Z,97318.42
2023-04-27T12:12:56.454Z,97326.73
2023-04-27T12:15:25.137Z,97327.07
2023-04-27T12:17:54.081Z,97325.08
2023-04-27T12:20:22.976Z,97324.26
2023-04-27T12:22:52.124Z,97325.16
2023-04-27T12:25:22.171Z,97321.81
2023-04-27T12:27:51.242Z,97323.71
2023-04-27T12:30:22.313Z,97325.23
2023-04-27T12:32:51.728Z,97319.80
2023-04-27T12:35:20.464Z,97317.77
2023-04-27T12:37:50.484Z,97311.88
2023-04-27T12:40:19.380Z,97314.67
2023-04-27T12:42:48.683Z,97312.04
2023-04-27T12:45:17.777Z,97311.24
2023-04-27T12:48:01.153Z,97318.91
2023-04-27T12:50:38.295Z,97314.21
2023-04-27T12:53:06.861Z,97315.02
2023-04-27T12:55:37.092Z,97316.02
2023-04-27T12:58:05.863Z,97317.98
2023-04-27T13:00:34.839Z,97322.23
2023-04-27T13:03:04.917Z,97325.98
2023-04-27T13:05:33.971Z,97330.16
2023-04-27T13:08:02.673Z,97332.72
2023-04-27T13:10:32.068Z,97336.80
2023-04-27T13:13:01.667Z,97339.58
2023-04-27T13:15:30.265Z,97336.81
2023-04-27T13:17:59.400Z,97341.31
2023-04-27T13:20:28.156Z,97346.17
2023-04-27T13:22:57.657Z,97346.17
2023-04-27T13:25:27.475Z,97354.25
2023-04-27T13:27:58.508Z,97353.73
2023-04-27T13:30:27.391Z,97349.84
2023-04-27T13:33:04.394Z,97345.46
2023-04-27T13:35:39.922Z,97345.13
2023-04-27T13:38:08.896Z,97352.59
2023-04-27T13:40:37.690Z,97353.38
2023-04-27T13:43:06.372Z,97351.95
2023-04-27T13:45:35.268Z,97354.02
2023-04-27T13:48:04.529Z,97355.61
2023-04-27T13:50:33.773Z,97353.40
2023-04-27T13:53:03.184Z,97355.38
2023-04-27T13:55:31.858Z,97349.79
2023-04-27T13:58:01.158Z,97356.60
2023-04-27T14:00:33.760Z,97358.50
2023-04-27T14:03:04.815Z,97353.17
2023-04-27T14:05:34.064Z,97356.38
2023-04-27T14:08:02.950Z,97358.81
2023-04-27T14:10:31.654Z,97360.41
2023-04-27T14:13:00.432Z,97364.17
2023-04-27T14:15:29.636Z,97370.44
2023-04-27T14:17:58.686Z,97372.98
2023-04-27T14:20:28.459Z,97371.80
2023-04-27T14:22:58.624Z,97374.92
2023-04-27T14:25:32.981Z,97375.39
2023-04-27T14:28:05.386Z,97377.39
2023-04-27T14:30:35.514Z,97380.31
2023-04-27T14:33:04.514Z,97378.61
2023-04-27T14:35:35.879Z,97376.25
2023-04-27T14:38:04.797Z,97383.98
2023-04-27T14:40:33.491Z,97386.08
2023-04-27T14:43:02.582Z,97385.66
2023-04-27T14:45:40.116Z,97391.79
2023-04-27T14:48:16.851Z,97389.95
2023-04-27T14:50:45.946Z,97395.63
2023-04-27T14:53:14.525Z,97398.81
2023-04-27T14:55:46.287Z,97402.18
2023-04-27T14:58:15.717Z,97408.14
2023-04-27T15:00:44.382Z,97412.25
2023-04-27T15:03:13.851Z,97411.89
2023-04-27T15:05:44.345Z,97411.48
2023-04-27T15:08:12.986Z,97412.41
2023-04-27T15:10:42.189Z,97413.23
2023-04-27T15:13:10.979Z,97406.31
2023-04-27T15:15:40.001Z,97408.67
2023-04-27T15:18:09.708Z,97412.30
2023-04-27T15:20:38.972Z,97410.85
2023-04-27T15:23:07.499Z,97413.77
2023-04-27T15:25:37.161Z,97412.89
2023-04-27T15:28:05.747Z,97418.03
2023-04-27T15:30:35.152Z,97414.31
2023-04-27T15:33:03.930Z,97415.77
2023-04-27T15:35:32.947Z,97421.47
2023-04-27T15:38:01.521Z,97416.42
2023-04-27T15:40:32.763Z,97425.36
2023-04-27T15:43:02.053Z,97424.02
2023-04-27T15:45:30.949Z,97424.89
2023-04-27T15:47:59.875Z,97426.52
2023-04-27T15:50:28.644Z,97425.64
2023-04-27T15:52:57.717Z,97429.73
2023-04-27T15:55:26.722Z,97434.20
2023-04-27T15:57:55.407Z,97434.85
2023-04-27T16:00:25.107Z,97436.65
2023-04-27T16:02:54.987Z,97441.94
2023-04-27T16:05:24.130Z,97442.70
2023-04-27T16:07:52.954Z,97441.25
2023-04-27T16:10:21.588Z,97442.98
2023-04-27T16:12:50.604Z,97445.65
2023-04-27T16:15:19.141Z,97447.30
2023-04-27T16:17:47.890Z,97445.70
2023-04-27T16:20:16.757Z,97451.33
2023-04-27T16:22:46.005Z,97451.51
2023-04-27T16:25:14.905Z,97449.81
2023-04-27T16:27:44.234Z,97452.20
2023-04-27T16:30:14.967Z,97455.94
2023-04-27T16:32:43.765Z,97458.34
2023-04-27T16:35:12.750Z,97459.41
2023-04-27T16:37:41.442Z,97463.24
2023-04-27T16:40:11.052Z,97463.64
2023-04-27T16:42:39.729Z,97466.58
2023-04-27T16:45:10.731Z,97466.71
2023-04-27T16:47:39.964Z,97468.59
2023-04-27T16:50:09.160Z,97471.30
2023-04-27T16:52:37.741Z,97471.61
2023-04-27T16:55:07.251Z,97475.69
2023-04-27T16:57:36.144Z,97477.05
2023-04-27T17:00:06.720Z,97476.48
2023-04-27T17:02:37.265Z,97471.48
2023-04-27T17:05:06.879Z,97475.02
2023-04-27T17:07:36.000Z,97476.52
2023-04-27T17:10:10.493Z,97478.02
2023-04-27T17:12:39.741Z,97480.57
2023-04-27T17:15:11.030Z,97485.01
2023-04-27T17:17:42.157Z,97492.45
2023-04-27T17:20:12.076Z,97491.27
2023-04-27T17:22:40.808Z,97495.41
2023-04-27T17:25:10.009Z,97496.55
2023-04-27T17:27:39.579Z,97501.81
2023-04-27T17:30:09.787Z,97508.55
2023-04-27T17:32:38.458Z,97510.50
2023-04-27T17:35:08.130Z,97514.23
2023-04-27T17:37:38.251Z,97521.33
2023-04-27T17:40:10.212Z,97521.81
2023-04-27T17:42:39.206Z,97523.83
2023-04-27T17:45:08.919Z,97526.15
2023-04-27T17:47:37.910Z,97532.02
2023-04-27T17:50:07.332Z,97537.11
2023-04-27T17:52:36.715Z,97538.54
2023-04-27T17:55:05.703Z,97540.56
2023-04-27T17:57:34.306Z,97540.11
2023-04-27T18:00:03.101Z,97545.63
2023-04-27T18:02:39.298Z,97553.82
2023-04-27T18:05:08.751Z,97554.64
2023-04-27T18:07:37.919Z,97560.30
2023-04-27T18:10:09.911Z,97560.34
2023-04-27T18:12:38.385Z,97564.81
2023-04-27T18:15:09.710Z,97567.11
2023-04-27T18:17:39.178Z,97576.49
2023-04-27T18:20:10.118Z,97580.73
2023-04-27T18:22:40.473Z,97583.40
2023-04-27T18:25:10.520Z,97586.59
2023-04-27T18:27:39.437Z,97586.76
2023-04-27T18:30:08.743Z,97591.83
2023-04-27T18:32:37.907Z,97592.14
2023-04-27T18:35:07.303Z,97600.03
2023-04-27T18:37:35.801Z,97598.29
2023-04-27T18:40:06.178Z,97603.47
2023-04-27T18:42:34.712Z,97605.22
2023-04-27T18:45:03.991Z,97608.30
2023-04-27T18:47:32.796Z,97606.63
2023-04-27T18:50:01.403Z,97615.86
2023-04-27T18:52:30.557Z,97619.23
2023-04-27T18:54:59.140Z,97622.05
2023-04-27T18:57:27.941Z,97625.72
2023-04-27T18:59:56.727Z,97624.23
2023-04-27T19:02:26.223Z,97626.37
2023-04-27T19:05:11.028Z,97633.09
2023-04-27T19:07:41.922Z,97636.55
2023-04-27T19:10:11.937Z,97642.27
2023-04-27T19:12:40.724Z,97644.20
2023-04-27T19:15:10.144Z,97645.63
2023-04-27T19:17:38.957Z,97642.48
2023-04-27T19:20:09.295Z,97646.34
2023-04-27T19:22:37.954Z,97644.80
2023-04-27T19:25:08.144Z,97650.45
2023-04-27T19:27:36.844Z,97650.92
2023-04-27T19:30:06.644Z,97650.89
2023-04-27T19:32:35.257Z,97655.64
2023-04-27T19:35:04.959Z,97652.48
2023-04-27T19:37:38.035Z,97657.48
2023-04-27T19:40:09.074Z,97657.64
2023-04-27T19:42:38.061Z,97662.98
2023-04-27T19:45:08.314Z,97658.98
2023-04-27T19:47:37.223Z,97660.48
2023-04-27T19:50:06.995Z,97665.46
2023-04-27T19:52:35.565Z,97671.48
2023-04-27T19:55:04.817Z,97672.00
2023-04-27T19:57:33.613Z,97673.13
2023-04-27T20:00:05.272Z,97677.35
2023-04-27T20:02:42.039Z,97681.38
2023-04-27T20:05:11.632Z,97685.23
2023-04-27T20:07:40.293Z,97684.68
2023-04-27T20:10:09.914Z,97686.17
2023-04-27T20:12:54.472Z,97684.17
2023-04-27T20:15:26.054Z,97683.85
2023-04-27T20:17:55.167Z,97686.09
2023-04-27T20:20:24.086Z,97686.77
2023-04-27T20:22:52.929Z,97688.05
2023-04-27T20:25:22.372Z,97686.78
2023-04-27T20:27:51.591Z,97685.27
2023-04-27T20:30:20.460Z,97686.66
2023-04-27T20:32:49.062Z,97683.55
2023-04-27T20:35:17.744Z,97684.40
2023-04-27T20:37:47.442Z,97685.09
2023-04-27T20:40:18.281Z,97687.02
2023-04-27T20:42:49.763Z,97688.94
2023-04-27T20:45:19.234Z,97684.98
2023-04-27T20:47:47.959Z,97688.27
2023-04-27T20:50:17.011Z,97685.60
2023-04-27T20:52:46.617Z,97683.55
2023-04-27T20:55:15.722Z,97688.01
2023-04-27T20:57:44.414Z,97689.41
2023-04-27T21:00:15.591Z,97687.55
2023-04-27T21:02:44.259Z,97687.65
2023-04-27T21:05:13.121Z,97689.26
2023-04-27T21:07:43.147Z,97690.23
2023-04-27T21:10:13.095Z,97686.39
2023-04-27T21:12:41.942Z,97690.77
2023-04-27T21:15:11.249Z,97684.96
2023-04-27T21:17:40.466Z,97689.84
2023-04-27T21:20:10.942Z,97684.23
2023-04-27T21:22:40.076Z,97684.75
2023-04-27T21:25:09.569Z,97688.70
2023-04-27T21:27:38.256Z,97686.77
2023-04-27T21:30:08.405Z,97681.35
2023-04-27T21:32:37.488Z,97682.91
2023-04-27T21:35:08.147Z,97682.58
2023-04-27T21:37:37.202Z,97680.73
2023-04-27T21:40:07.221Z,97680.77
2023-04-27T21:42:36.519Z,97684.06
2023-04-27T21:45:05.816Z,97686.21
2023-04-27T21:47:34.829Z,97690.42
2023-04-27T21:50:04.520Z,97685.81
2023-04-27T21:52:34.504Z,97686.45
2023-04-27T21:55:03.943Z,97692.73
2023-04-27T21:57:33.952Z,97696.64
2023-04-27T22:00:09.095Z,97695.88
2023-04-27T22:02:47.163Z,97696.89
2023-04-27T22:05:16.723Z,97698.73
2023-04-27T22:07:48.102Z,97694.92
2023-04-27T22:10:17.182Z,97694.90
2023-04-27T22:12:47.463Z,97694.70
2023-04-27T22:15:17.091Z,97695.42
2023-04-27T22:17:46.223Z,97692.68
2023-04-27T22:20:16.691Z,97695.14
2023-04-27T22:22:46.614Z,97697.34
2023-04-27T22:25:15.829Z,97695.72
2023-04-27T22:27:46.240Z,97698.77
2023-04-27T22:30:15.853Z,97697.31
2023-04-27T22:32:45.303Z,97696.34
2023-04-27T22:35:25.514Z,97692.09
2023-04-27T22:37:57.465Z,97693.84
2023-04-27T22:40:26.672Z,97697.30
2023-04-27T22:42:56.991Z,97698.71
2023-04-27T22:45:26.303Z,97701.66
2023-04-27T22:47:56.460Z,97703.71
2023-04-27T22:50:25.614Z,97703.55
2023-04-27T22:52:54.301Z,97703.71
2023-04-27T22:55:23.900Z,97703.68
2023-04-27T22:57:54.202Z,97701.56
2023-04-27T23:00:23.113Z,97702.11
2023-04-27T23:02:53.048Z,97700.17
2023-04-27T23:05:22.870Z,97697.10
2023-04-27T23:07:53.204Z,97695.70
2023-04-27T23:10:24.259Z,97694.16
2023-04-27T23:12:55.254Z,97693.35
2023-04-27T23:15:25.391Z,97689.22
2023-04-27T23:17:54.529Z,97684.49
2023-04-27T23:20:28.637Z,97688.23
2023-04-27T23:22:59.628Z,97692.33
2023-04-27T23:25:29.294Z,97697.52
2023-04-27T23:27:59.039Z,97698.85
2023-04-27T23:30:30.276Z,97700.39
2023-04-27T23:33:00.506Z,97702.58
2023-04-27T23:35:30.477Z,97703.17
2023-04-27T23:38:00.367Z,97700.69
2023-04-27T23:40:29.526Z,97697.55
2023-04-27T23:42:58.742Z,97696.09
2023-04-27T23:45:29.457Z,97695.11
2023-04-27T23:48:00.162Z,97696.84
2023-04-27T23:50:30.814Z,97689.48
2023-04-27T23:53:01.325Z,97692.26
2023-04-27T23:55:31.846Z,97693.55
2023-04-27T23:58:02.006Z,97691.70
